Huvudsida
METAR-TAF:

METAR-TAF

Flygplatser :

Colmenar Viejo, Spanien

latitud: 40-39N, longitud: 003-44W, höjd: -999 m

Aktuellt väderrapport

Denna rapport gjordes för 16 minuter sedan, klockan 16:00 UTC
Vind 1 kt varierande vindriktning
Temperatur 13°C
Fuktighet 77%
Tryck 1021 hPa
Sikt 10 km eller mer
Få moln på en höjd av 2500 ft
Brutna moln på en höjd av 5500 ft

METAR: LECV 141600Z VRB01KT 9999 FEW025 BKN055 13/09 Q1021

Tid: 17:16 (16:16 UTC)

Väderprognos

Denna rapport gjordes för 2 timmar och 16 minuter sedan, klockan 14:00 UTC
Prognos gäller från 14 kl. 15 UTC till 14 kl. 24 UTC
Vind 5 kt varierande vindriktning
Sikt 10 km eller mer
Brutna moln på en höjd av 2500 ft
Sannolikhet 40% :
Temporärt
från 14 kl. 15 UTC till 14 kl. 19 UTC
Vind 6 kt från ost/sydost

TAF: LECV 141400Z 1415/1424 VRB05KT 9999 BKN025 PROB40 TEMPO 1415/1419 12006KT

Aktuella väderrapporter och prognoser från 4000 flygplatser (METAR- och TAF-rapporter).

De tillgängliga stationerna syns som gula och röda prickar på kartan.

För musen över prickarna för att se namnen på stationerna.

Klicka sedan för att få väderrapporter och prognoser.

För att ändra kartan: Klicka på de gröna knapparna med ett svart kors på för att zooma in; den gröna knappen med ett streck på för att zooma ut; eller på de gröna pilarna för angränsande kartor.


METAR-TAF: